Time;durP1;ratioP1;P1;durP2;ratioP2;P2;SDS_P1;SDS_P2;PMS_P1;PMS_P2;Temp;Humidity;BMP_temperature;BMP_pressure;BME280_temperature;BME280_humidity;BME280_pressure;Samples;Min_cycle;Max_cycle;Signal;HPM_P1;HPM_P2
2023/09/29 00:01:18;;;;;;;;;3.67;3.00;;;;;22.07;65.61;101094.22;4951311;28;45601;-69
2023/09/29 00:03:45;;;;;;;;;3.00;3.00;;;;;22.01;65.54;101076.03;4950927;28;45272;-69
2023/09/29 00:06:10;;;;;;;;;3.50;3.50;;;;;21.99;65.83;101071.88;4948316;28;45209;-69
2023/09/29 00:08:35;;;;;;;;;5.00;5.00;;;;;22.02;65.56;101080.41;4948566;28;45390;-69
2023/09/29 00:11:01;;;;;;;;;4.50;3.50;;;;;22.02;65.63;101082.28;4950082;28;47271;-68
2023/09/29 00:13:26;;;;;;;;;4.25;4.25;;;;;22.01;65.61;101084.16;4950962;28;45502;-68
2023/09/29 00:15:51;;;;;;;;;6.00;6.00;;;;;22.05;65.47;101095.47;4943133;28;45966;-71
2023/09/29 00:18:17;;;;;;;;;4.67;4.00;;;;;21.97;65.77;101072.09;4948829;28;45550;-69
2023/09/29 00:20:42;;;;;;;;;3.00;3.00;;;;;21.80;65.72;101033.81;4948099;28;46527;-69
2023/09/29 00:23:08;;;;;;;;;5.00;3.00;;;;;21.93;65.94;101051.09;4947434;28;45384;-68
2023/09/29 00:25:34;;;;;;;;;5.00;4.00;;;;;21.98;65.83;101067.53;4953895;28;45429;-69
2023/09/29 00:28:00;;;;;;;;;4.00;4.00;;;;;21.86;65.71;101040.28;4950657;28;45312;-69
2023/09/29 00:30:25;;;;;;;;;5.00;5.00;;;;;21.85;65.86;101038.63;4948287;28;45654;-69
2023/09/29 00:32:52;;;;;;;;;5.33;4.33;;;;;21.96;66.12;101059.63;4955289;28;45245;-68
2023/09/29 00:35:24;;;;;;;;;5.00;4.00;;;;;21.95;66.34;101059.81;4947650;28;45484;-69
2023/09/29 00:38:00;;;;;;;;;5.67;5.67;;;;;21.66;66.21;101013.25;4940132;28;45395;-68
2023/09/29 00:40:26;;;;;;;;;5.50;4.50;;;;;21.90;66.47;101059.63;4947798;28;45659;-68
2023/09/29 00:42:52;;;;;;;;;9.00;5.00;;;;;21.81;66.44;101053.59;4947889;28;45428;-68
2023/09/29 00:45:22;;;;;;;;;4.00;4.00;;;;;21.84;66.61;101058.63;4947724;28;45240;-70
2023/09/29 00:47:50;;;;;;;;;4.33;4.33;;;;;21.83;66.94;101059.66;4947000;28;45625;-68
2023/09/29 00:50:18;;;;;;;;;4.00;4.00;;;;;21.78;67.00;101054.84;4942815;28;46339;-69
2023/09/29 00:52:46;;;;;;;;;4.25;4.25;;;;;21.79;66.89;101061.09;4941557;28;45511;-69
2023/09/29 00:55:14;;;;;;;;;4.00;4.00;;;;;21.75;67.05;101067.97;4949749;28;45383;-69
2023/09/29 00:57:40;;;;;;;;;4.67;4.67;;;;;21.70;67.22;101056.94;4947644;28;45331;-68
2023/09/29 01:02:46;;;;;;;;;4.67;4.33;;;;;21.33;67.33;100988.09;4944871;28;45440;-68
2023/09/29 01:05:12;;;;;;;;;6.00;5.00;;;;;21.40;67.68;100988.91;4949931;28;45322;-70
2023/09/29 01:07:41;;;;;;;;;5.33;4.00;;;;;21.70;67.75;101032.59;4954338;28;45460;-69
2023/09/29 01:10:06;;;;;;;;;2.33;2.33;;;;;21.65;67.71;101019.69;4940232;28;46722;-68
2023/09/29 01:12:34;;;;;;;;;4.00;4.00;;;;;21.65;67.74;101018.88;4923645;28;45466;-68
2023/09/29 01:14:59;;;;;;;;;5.67;4.33;;;;;21.48;68.04;100992.25;4946051;28;45482;-69
2023/09/29 01:17:25;;;;;;;;;5.00;5.00;;;;;21.53;68.10;101007.84;4940919;28;45463;-69
2023/09/29 01:19:51;;;;;;;;;4.67;3.67;;;;;21.39;68.30;100988.06;4950803;28;45862;-69
2023/09/29 01:22:17;;;;;;;;;3.67;3.67;;;;;21.47;67.80;100998.69;4949729;28;45389;-68
2023/09/29 01:24:44;;;;;;;;;4.33;3.33;;;;;21.55;67.70;101016.56;4950547;28;45319;-68
2023/09/29 01:27:09;;;;;;;;;5.00;5.00;;;;;21.56;68.12;101007.41;4950560;28;45347;-70
2023/09/29 01:29:35;;;;;;;;;5.00;5.00;;;;;21.59;68.19;101015.09;4949879;28;45506;-69
2023/09/29 01:32:02;;;;;;;;;4.67;3.33;;;;;21.51;67.87;100994.53;4949891;28;45607;-69
2023/09/29 01:34:31;;;;;;;;;3.33;3.33;;;;;21.59;67.78;101015.09;4942065;28;45474;-69
2023/09/29 01:36:59;;;;;;;;;5.67;5.67;;;;;21.60;67.57;101015.94;4950019;28;45383;-79
2023/09/29 01:39:25;;;;;;;;;4.00;4.00;;;;;21.53;67.66;101011.38;4942429;28;46776;-71
2023/09/29 01:41:51;;;;;;;;;4.00;4.00;;;;;21.61;67.44;101018.44;4949804;28;45288;-69
2023/09/29 01:44:16;;;;;;;;;6.33;5.33;;;;;21.61;67.75;101012.19;4940869;28;45510;-68
2023/09/29 01:46:41;;;;;;;;;5.33;4.00;;;;;21.59;67.38;101025.09;4948278;28;47880;-70
2023/09/29 01:49:06;;;;;;;;;7.00;4.33;;;;;21.59;68.09;101020.53;4951592;28;50775;-69
2023/09/29 01:51:32;;;;;;;;;5.50;5.50;;;;;21.59;67.51;101022.41;4949658;28;45368;-68
2023/09/29 01:53:57;;;;;;;;;4.33;4.00;;;;;21.51;67.41;101009.91;4949628;28;45468;-69
2023/09/29 01:56:23;;;;;;;;;4.50;3.50;;;;;21.54;67.85;101023.03;4949811;28;45548;-68
2023/09/29 01:58:49;;;;;;;;;3.00;3.00;;;;;21.43;67.40;100993.91;4947589;28;46767;-68
2023/09/29 02:01:14;;;;;;;;;3.00;3.00;;;;;21.53;67.58;101026.78;4946588;28;45256;-69
2023/09/29 02:03:41;;;;;;;;;3.00;3.00;;;;;21.52;67.46;101028.66;4953460;28;45306;-70
2023/09/29 02:06:06;;;;;;;;;4.00;4.00;;;;;21.24;67.47;100973.94;4939456;28;45414;-69
2023/09/29 02:08:32;;;;;;;;;3.25;3.25;;;;;21.49;67.74;101020.97;4953245;28;46746;-68
2023/09/29 02:10:57;;;;;;;;;3.00;3.00;;;;;21.47;67.80;101009.50;4946437;28;58768;-68
2023/09/29 02:13:22;;;;;;;;;4.00;4.00;;;;;21.35;67.82;101005.75;4938877;28;45320;-69
2023/09/29 02:15:48;;;;;;;;;4.00;4.00;;;;;21.46;67.72;101018.69;4937524;28;45598;-69
2023/09/29 02:18:13;;;;;;;;;5.00;4.00;;;;;21.36;68.08;101004.72;4942710;28;45981;-68
2023/09/29 02:20:46;;;;;;;;;6.00;5.00;;;;;21.36;67.78;101010.13;4949457;28;45252;-68
2023/09/29 02:23:11;;;;;;;;;4.50;4.50;;;;;21.40;67.56;101027.59;4952804;28;45575;-67
2023/09/29 02:25:37;;;;;;;;;3.00;3.00;;;;;21.36;67.52;101028.22;4946587;28;45390;-69
2023/09/29 02:28:03;;;;;;;;;6.00;4.00;;;;;21.29;67.24;101030.13;4946026;28;60644;-67
2023/09/29 02:30:29;;;;;;;;;2.50;2.50;;;;;21.34;67.61;101024.91;4945944;28;45318;-68
2023/09/29 02:32:56;;;;;;;;;4.00;4.00;;;;;21.33;67.34;101024.06;4946732;28;45358;-69
2023/09/29 02:35:22;;;;;;;;;3.50;3.50;;;;;21.27;67.44;101027.63;4943379;28;45490;-69
2023/09/29 02:37:48;;;;;;;;;4.00;4.00;;;;;21.24;67.43;101025.34;4940667;28;47932;-68
2023/09/29 02:40:15;;;;;;;;;5.00;3.67;;;;;21.27;67.33;101033.03;4946127;28;45237;-68
2023/09/29 02:42:41;;;;;;;;;3.00;3.00;;;;;21.24;67.36;101025.34;4928964;28;45476;-68
2023/09/29 02:45:08;;;;;;;;;2.67;2.67;;;;;21.25;66.90;101018.88;4946290;28;45448;-69
2023/09/29 02:47:34;;;;;;;;;3.00;3.00;;;;;21.22;67.03;101021.94;4945958;28;46105;-69
2023/09/29 02:50:00;;;;;;;;;2.00;2.00;;;;;21.20;66.98;101021.31;4945519;28;45487;-69
2023/09/29 02:52:27;;;;;;;;;2.33;1.33;;;;;21.09;67.22;101008.44;4945630;28;45474;-69
2023/09/29 02:54:54;;;;;;;;;3.00;3.00;;;;;21.17;67.00;101010.91;4946630;28;45438;-70
2023/09/29 02:57:21;;;;;;;;;2.00;2.00;;;;;21.18;66.85;101018.00;4946204;28;46542;-69
2023/09/29 02:59:46;;;;;;;;;4.00;4.00;;;;;21.15;66.76;101010.28;4938088;28;45364;-68
2023/09/29 03:02:12;;;;;;;;;2.00;2.00;;;;;21.10;67.11;101005.53;4948078;28;45528;-68
2023/09/29 03:04:39;;;;;;;;;2.00;2.00;;;;;21.16;67.12;101020.91;4949363;28;45478;-69
2023/09/29 03:07:04;;;;;;;;;2.50;2.00;;;;;21.14;66.94;101033.81;4946590;28;46161;-68
2023/09/29 03:09:29;;;;;;;;;1.50;1.50;;;;;21.13;67.03;101036.72;4946219;28;45531;-69
2023/09/29 03:11:55;;;;;;;;;2.00;1.00;;;;;21.06;67.64;101033.19;4937627;28;57677;-71
2023/09/29 03:14:21;;;;;;;;;1.25;1.25;;;;;20.89;67.71;100992.19;4953372;28;45553;-69
2023/09/29 03:16:46;;;;;;;;;4.00;3.00;;;;;21.04;68.02;101022.56;4945678;28;46356;-69
2023/09/29 03:19:12;;;;;;;;;4.00;2.50;;;;;20.98;67.94;101011.72;4939853;28;45316;-70
2023/09/29 03:21:37;;;;;;;;;1.50;1.00;;;;;20.93;67.56;101002.38;4944691;28;45767;-69
2023/09/29 03:24:03;;;;;;;;;3.67;3.67;;;;;20.99;68.14;101005.28;4945680;28;45484;-69
2023/09/29 03:26:31;;;;;;;;;1.75;1.00;;;;;20.87;68.58;100995.09;4945833;28;45790;-68
2023/09/29 03:28:57;;;;;;;;;3.67;2.00;;;;;20.91;68.90;101019.84;4945494;28;45434;-69
2023/09/29 03:31:22;;;;;;;;;2.00;2.00;;;;;20.72;68.58;100997.13;4948087;28;45561;-70
2023/09/29 03:33:48;;;;;;;;;1.00;1.00;;;;;20.84;68.46;101019.84;4943557;28;45527;-69
2023/09/29 03:36:14;;;;;;;;;1.25;1.25;;;;;20.91;68.69;101027.94;4938839;28;46714;-68
2023/09/29 03:38:40;;;;;;;;;2.00;2.00;;;;;20.85;68.67;101023.38;4942009;28;45304;-69
2023/09/29 03:41:07;;;;;;;;;2.25;1.00;;;;;20.75;69.08;101021.03;4948363;28;45517;-69
2023/09/29 03:43:32;;;;;;;;;2.00;1.00;;;;;20.76;68.93;101016.47;4938036;28;45371;-68
2023/09/29 03:45:58;;;;;;;;;3.00;3.00;;;;;20.75;69.06;101018.34;4944680;28;46585;-68
2023/09/29 03:48:25;;;;;;;;;1.75;1.75;;;;;20.44;69.17;100969.44;4940262;28;45471;-68
2023/09/29 03:50:50;;;;;;;;;4.50;2.25;;;;;20.71;69.48;101025.19;4951559;28;45241;-69
2023/09/29 03:53:18;;;;;;;;;1.00;1.00;;;;;20.65;69.55;101017.91;4943996;28;45465;-70
2023/09/29 03:55:46;;;;;;;;;4.00;2.50;;;;;20.67;69.50;101026.63;4938820;28;60811;-69
2023/09/29 03:58:14;;;;;;;;;3.00;3.00;;;;;20.62;69.95;101026.41;4948556;28;45236;-69
2023/09/29 04:00:39;;;;;;;;;3.25;2.50;;;;;20.60;69.93;101023.06;4951393;28;45297;-69
2023/09/29 04:03:06;;;;;;;;;3.00;3.00;;;;;20.55;69.97;101025.56;4944614;28;45303;-69
2023/09/29 04:05:32;;;;;;;;;3.00;3.00;;;;;20.53;70.32;101031.16;4951226;28;47441;-70
2023/09/29 04:07:57;;;;;;;;;4.00;2.50;;;;;20.48;70.25;101020.13;4945378;28;45545;-71
2023/09/29 04:10:22;;;;;;;;;2.25;2.25;;;;;20.49;70.53;101029.91;4956394;28;45396;-69
2023/09/29 04:12:48;;;;;;;;;6.00;4.00;;;;;20.47;70.60;101041.94;4947952;28;48824;-69
2023/09/29 04:15:14;;;;;;;;;3.33;2.00;;;;;20.40;70.71;101051.84;4947725;28;46219;-68
2023/09/29 04:17:40;;;;;;;;;2.33;2.33;;;;;20.42;70.77;101060.59;4951834;28;45378;-68
2023/09/29 04:20:06;;;;;;;;;3.00;3.00;;;;;20.36;71.02;101071.16;4935003;28;45415;-69
2023/09/29 04:22:32;;;;;;;;;4.00;3.00;;;;;20.37;70.54;101082.78;4948682;28;45447;-69
2023/09/29 04:24:58;;;;;;;;;2.00;2.00;;;;;20.35;70.70;101074.03;4945170;28;47389;-69
2023/09/29 04:27:23;;;;;;;;;3.00;3.00;;;;;20.42;70.70;101101.94;4950166;28;45421;-70
2023/09/29 04:29:50;;;;;;;;;2.67;2.00;;;;;20.44;70.57;101108.00;4944595;28;45162;-71
2023/09/29 04:32:15;;;;;;;;;2.00;2.00;;;;;20.44;71.13;101090.97;4951036;28;45524;-71
2023/09/29 04:34:41;;;;;;;;;4.67;4.67;;;;;20.35;70.74;101079.44;4940280;28;45481;-68
2023/09/29 04:37:06;;;;;;;;;3.00;3.00;;;;;20.35;71.17;101079.44;4947289;28;51393;-70
2023/09/29 04:39:31;;;;;;;;;2.00;2.00;;;;;20.35;71.22;101087.56;4948374;28;49777;-69
2023/09/29 04:41:57;;;;;;;;;2.00;2.00;;;;;20.43;71.12;101083.91;4957708;28;45662;-69
2023/09/29 04:44:23;;;;;;;;;4.67;3.00;;;;;20.32;71.36;101077.97;4943059;28;46214;-69
2023/09/29 04:46:48;;;;;;;;;2.00;2.00;;;;;20.39;71.49;101098.78;4949553;28;45535;-69
2023/09/29 04:49:13;;;;;;;;;1.25;1.25;;;;;20.39;71.44;101107.72;4951282;28;45304;-69
2023/09/29 04:51:39;;;;;;;;;3.00;3.00;;;;;20.40;71.28;101108.53;4943383;28;45526;-69
2023/09/29 04:54:04;;;;;;;;;5.50;4.75;;;;;20.44;71.24;101105.31;4945549;28;45928;-67
2023/09/29 04:56:31;;;;;;;;;4.25;4.25;;;;;20.47;70.86;101107.59;4947538;28;45509;-70
2023/09/29 04:58:56;;;;;;;;;3.67;2.00;;;;;20.51;70.78;101106.16;4947731;28;45220;-70
2023/09/29 05:01:23;;;;;;;;;2.75;2.75;;;;;20.51;70.89;101094.53;4947332;28;45675;-69
2023/09/29 05:03:50;;;;;;;;;4.00;4.00;;;;;20.47;70.64;101095.97;4941139;28;45836;-70
2023/09/29 05:06:16;;;;;;;;;4.50;4.00;;;;;20.59;70.48;101105.97;4941207;28;45278;-69
2023/09/29 05:08:41;;;;;;;;;2.00;2.00;;;;;20.51;70.21;101089.94;4947042;28;45379;-68
2023/09/29 05:11:07;;;;;;;;;4.00;4.00;;;;;20.62;70.24;101107.44;4947655;28;45659;-68
2023/09/29 05:13:32;;;;;;;;;4.25;3.25;;;;;20.53;70.06;101082.47;4943915;28;57453;-70
2023/09/29 05:16:01;;;;;;;;;4.33;4.33;;;;;20.67;70.00;101104.16;4939584;28;45478;-70
2023/09/29 05:18:26;;;;;;;;;3.33;3.00;;;;;20.63;69.73;101095.63;4939942;28;45232;-69
2023/09/29 05:20:52;;;;;;;;;9.00;5.67;;;;;20.58;69.93;101096.22;4948795;28;45196;-68
2023/09/29 05:23:17;;;;;;;;;3.25;1.00;;;;;20.31;69.77;101060.13;4945024;28;46412;-69
2023/09/29 05:25:49;;;;;;;;;4.00;2.75;;;;;20.60;69.67;101106.81;4947718;28;45299;-74
2023/09/29 05:28:14;;;;;;;;;4.00;2.25;;;;;20.63;69.79;101117.25;4945718;28;54403;-69
2023/09/29 05:30:52;;;;;;;;;6.33;4.33;;;;;20.67;69.99;101132.00;4951346;28;45632;-70
2023/09/29 05:33:17;;;;;;;;;7.00;7.00;;;;;20.37;69.52;101077.38;4942407;28;46725;-68
2023/09/29 05:35:42;;;;;;;;;5.33;4.00;;;;;20.68;69.36;101130.97;4946691;28;45333;-70
2023/09/29 05:38:08;;;;;;;;;7.00;4.33;;;;;20.72;69.29;101139.50;4952966;28;54001;-69
2023/09/29 05:40:33;;;;;;;;;5.33;4.00;;;;;20.70;69.28;101142.41;4945084;28;56936;-69
2023/09/29 05:42:58;;;;;;;;;4.00;3.75;;;;;20.73;69.42;101150.13;4937626;28;47261;-69
2023/09/29 05:45:24;;;;;;;;;4.00;3.00;;;;;20.70;69.21;101150.53;4946229;28;45703;-70
2023/09/29 05:47:51;;;;;;;;;4.67;3.00;;;;;20.62;69.12;101129.91;4935789;28;45291;-70
2023/09/29 05:50:17;;;;;;;;;4.00;4.00;;;;;20.71;69.03;101138.69;4946034;28;45449;-71
2023/09/29 05:52:42;;;;;;;;;3.75;3.75;;;;;20.67;68.81;101137.41;4945215;28;46592;-70
2023/09/29 05:55:08;;;;;;;;;8.00;5.33;;;;;20.84;68.41;101165.78;4953620;28;45336;-69
2023/09/29 05:57:34;;;;;;;;;6.33;6.33;;;;;20.59;67.82;101124.06;4946307;28;45417;-69
2023/09/29 05:59:59;;;;;;;;;4.67;4.67;;;;;20.85;67.88;101170.13;4947103;28;45377;-67
2023/09/29 06:02:24;;;;;;;;;6.67;6.67;;;;;20.60;67.60;101118.44;4951476;28;45856;-70
2023/09/29 06:04:50;;;;;;;;;4.25;4.00;;;;;20.86;66.99;101162.88;4945608;28;46797;-70
2023/09/29 06:07:15;;;;;;;;;7.25;3.00;;;;;20.80;67.06;101160.94;4941729;28;45371;-72
2023/09/29 06:09:40;;;;;;;;;4.00;3.67;;;;;20.79;67.19;101173.63;4942947;28;45535;-70
2023/09/29 06:12:06;;;;;;;;;4.50;4.00;;;;;20.86;67.37;101187.19;4944893;28;46421;-68
2023/09/29 06:14:32;;;;;;;;;5.50;4.50;;;;;20.83;67.10;101174.91;4945418;28;45264;-77
2023/09/29 06:16:58;;;;;;;;;13.00;7.25;;;;;20.90;67.15;101200.09;4948143;28;45506;-69
2023/09/29 06:19:24;;;;;;;;;3.75;3.75;;;;;20.93;67.06;101202.38;4942902;28;45328;-70
2023/09/29 06:21:49;;;;;;;;;8.00;6.33;;;;;20.96;66.77;101193.03;4948548;28;46264;-69
2023/09/29 06:24:14;;;;;;;;;5.00;5.00;;;;;21.02;66.61;101191.38;4939876;28;45388;-69
2023/09/29 06:26:40;;;;;;;;;6.67;6.67;;;;;20.91;66.40;101174.72;4949554;28;45222;-69
2023/09/29 06:29:06;;;;;;;;;13.00;7.00;;;;;20.54;66.16;101105.75;4941018;28;45449;-70
2023/09/29 06:31:31;;;;;;;;;8.00;6.25;;;;;21.04;65.73;101186.66;4948727;28;46484;-70
2023/09/29 06:33:57;;;;;;;;;8.33;7.00;;;;;21.13;65.47;101201.63;4930983;28;45445;-69
2023/09/29 06:36:22;;;;;;;;;5.00;5.00;;;;;21.01;64.83;101178.91;4938057;28;46444;-69
2023/09/29 06:38:48;;;;;;;;;12.67;8.00;;;;;21.17;64.70;101205.59;4949006;28;45469;-69
2023/09/29 06:41:13;;;;;;;;;7.67;5.00;;;;;20.86;64.27;101152.06;4939876;28;46897;-70
2023/09/29 06:43:39;;;;;;;;;10.33;8.67;;;;;21.27;63.76;101214.22;4950021;28;56684;-70
2023/09/29 06:46:06;;;;;;;;;7.00;6.00;;;;;21.18;63.77;101202.69;4953999;28;45593;-70
2023/09/29 06:48:31;;;;;;;;;10.67;8.00;;;;;21.35;63.25;101232.13;4938047;28;45643;-70
2023/09/29 06:50:59;;;;;;;;;6.67;5.00;;;;;21.38;63.07;101224.44;4941774;28;46662;-71
2023/09/29 06:53:24;;;;;;;;;13.33;9.00;;;;;21.39;62.88;101219.84;4941457;28;45560;-68
2023/09/29 06:55:49;;;;;;;;;11.67;7.67;;;;;21.52;62.43;101245.09;4950048;28;45528;-70
2023/09/29 06:58:15;;;;;;;;;9.00;7.33;;;;;21.53;62.71;101240.50;4936261;28;52737;-70
2023/09/29 07:00:40;;;;;;;;;6.75;5.75;;;;;21.53;62.06;101245.91;4956604;28;47251;-69
2023/09/29 07:03:11;;;;;;;;;5.75;4.50;;;;;21.22;62.37;101203.13;4948640;28;48849;-68
2023/09/29 07:05:36;;;;;;;;;10.00;7.67;;;;;21.55;62.16;101252.78;4940249;28;45233;-70
2023/09/29 07:08:02;;;;;;;;;8.33;5.33;;;;;21.61;62.53;101272.78;4944238;28;45595;-70
2023/09/29 07:10:27;;;;;;;;;3.50;3.50;;;;;21.62;61.99;101282.56;4942886;28;45583;-74
2023/09/29 07:12:52;;;;;;;;;7.00;6.75;;;;;21.54;61.81;101271.94;4946656;28;45441;-68
2023/09/29 07:15:18;;;;;;;;;6.50;5.50;;;;;21.58;62.30;101291.31;4953985;28;45325;-76
2023/09/29 07:17:43;;;;;;;;;5.50;4.50;;;;;21.56;61.96;101296.91;4947829;28;45687;-69
2023/09/29 07:20:09;;;;;;;;;9.00;6.00;;;;;21.58;62.48;101299.41;4950788;28;46764;-70
2023/09/29 07:22:35;;;;;;;;;6.00;6.00;;;;;21.62;62.27;101295.25;4947520;28;45480;-70
2023/09/29 07:25:00;;;;;;;;;6.75;5.50;;;;;21.65;62.45;101305.72;4954858;28;45295;-68
2023/09/29 07:27:26;;;;;;;;;7.00;6.00;;;;;21.64;62.53;101301.34;4931535;28;45534;-70
2023/09/29 07:29:51;;;;;;;;;5.75;4.75;;;;;21.70;61.95;101300.50;4954867;28;46613;-69
2023/09/29 07:32:17;;;;;;;;;8.67;4.67;;;;;21.84;62.22;101322.00;4948522;28;45605;-69
2023/09/29 07:34:42;;;;;;;;;7.67;5.33;;;;;21.64;62.03;101277.81;4954911;28;49280;-70
2023/09/29 07:37:08;;;;;;;;;3.00;3.00;;;;;21.83;61.71;101308.69;4943248;28;47079;-69
2023/09/29 07:39:33;;;;;;;;;4.00;4.00;;;;;21.98;61.55;101327.44;4958939;28;46342;-69
2023/09/29 07:41:59;;;;;;;;;7.33;3.67;;;;;22.09;61.52;101335.84;4943082;28;45369;-70
2023/09/29 07:44:24;;;;;;;;;3.00;3.00;;;;;22.08;61.49;101330.63;4939240;28;45585;-69
2023/09/29 07:46:53;;;;;;;;;6.00;3.00;;;;;22.01;61.06;101330.56;4934229;28;52205;-69
2023/09/29 07:49:19;;;;;;;;;5.75;3.00;;;;;22.07;61.35;101343.34;4947607;28;46157;-69
2023/09/29 07:51:44;;;;;;;;;6.00;2.67;;;;;22.07;61.09;101356.88;4952389;28;45511;-70
2023/09/29 07:54:09;;;;;;;;;5.00;5.00;;;;;22.04;61.54;101357.28;4943879;28;45267;-71
2023/09/29 07:56:35;;;;;;;;;3.25;1.75;;;;;22.04;61.32;101360.00;4931231;28;45633;-69
2023/09/29 07:59:01;;;;;;;;;6.00;2.67;;;;;22.02;61.42;101361.19;4948057;28;45764;-69
2023/09/29 08:01:26;;;;;;;;;2.75;2.50;;;;;22.01;61.81;101371.19;4949083;28;45539;-69
2023/09/29 08:03:51;;;;;;;;;5.00;3.33;;;;;21.63;61.91;101307.78;4952709;28;45343;-68
2023/09/29 08:06:17;;;;;;;;;11.00;6.33;;;;;22.13;61.82;101391.25;4954349;28;50411;-68
2023/09/29 08:08:43;;;;;;;;;4.00;4.00;;;;;22.12;61.62;101394.16;4954196;28;47223;-69
2023/09/29 08:11:08;;;;;;;;;4.33;2.00;;;;;22.19;61.86;101399.59;4950848;28;45461;-68
2023/09/29 08:13:34;;;;;;;;;1.25;1.00;;;;;22.26;61.50;101401.31;4953469;28;45308;-70
2023/09/29 08:16:00;;;;;;;;;2.75;1.25;;;;;22.38;61.06;101405.06;4949558;28;45660;-70
2023/09/29 08:18:25;;;;;;;;;1.00;1.00;;;;;22.43;60.55;101401.75;4951865;28;45660;-69
2023/09/29 08:20:53;;;;;;;;;4.00;2.50;;;;;22.54;60.39;101420.09;4948977;28;45475;-69
2023/09/29 08:23:19;;;;;;;;;3.25;3.25;;;;;22.60;60.32;101413.84;4947795;28;45392;-69
2023/09/29 08:25:46;;;;;;;;;2.25;2.25;;;;;22.65;60.16;101422.22;4956585;28;45509;-72
2023/09/29 08:28:13;;;;;;;;;6.25;4.00;;;;;22.65;59.76;101415.97;4955159;28;46725;-69
2023/09/29 08:30:39;;;;;;;;;4.00;1.00;;;;;22.50;59.76;101383.63;4949544;28;45365;-69
2023/09/29 08:33:04;;;;;;;;;4.50;2.00;;;;;22.76;60.15;101429.72;4948942;28;45341;-69
2023/09/29 08:35:30;;;;;;;;;4.50;3.00;;;;;22.70;59.91;101446.81;4955094;28;45527;-70
2023/09/29 08:37:56;;;;;;;;;1.50;1.50;;;;;22.70;59.69;101454.94;4941105;28;47679;-73
2023/09/29 08:40:21;;;;;;;;;2.50;1.75;;;;;22.69;59.07;101461.41;4954320;28;45662;-69
2023/09/29 08:42:50;;;;;;;;;0.50;0.50;;;;;22.68;59.08;101467.88;4942675;28;45379;-69
2023/09/29 08:45:19;;;;;;;;;3.00;2.00;;;;;22.64;59.24;101469.34;4958298;28;45969;-69
2023/09/29 08:47:52;;;;;;;;;1.75;1.75;;;;;22.55;59.01;101448.88;4953188;28;47517;-72
2023/09/29 08:50:18;;;;;;;;;1.00;1.00;;;;;22.56;58.12;101474.91;4954563;28;45530;-69
2023/09/29 08:52:45;;;;;;;;;0.00;0.00;;;;;22.61;58.45;101485.97;4935087;28;45526;-70
2023/09/29 08:55:12;;;;;;;;;2.00;1.00;;;;;22.61;58.28;101480.56;4957322;28;45401;-70
2023/09/29 08:57:38;;;;;;;;;0.00;0.00;;;;;22.56;58.09;101452.41;4950982;28;46790;-70
2023/09/29 09:00:04;;;;;;;;;2.00;1.00;;;;;22.92;57.44;101488.16;4957740;28;45272;-69
2023/09/29 09:02:30;;;;;;;;;0.00;0.00;;;;;23.09;57.15;101485.03;4949488;28;45490;-69
2023/09/29 09:04:56;;;;;;;;;1.00;1.00;;;;;23.19;56.37;101490.88;4949834;28;45488;-75
2023/09/29 09:07:23;;;;;;;;;0.00;0.00;;;;;23.33;55.53;101496.09;4945623;28;45610;-70
2023/09/29 09:09:53;;;;;;;;;0.00;0.00;;;;;23.40;55.50;101512.34;4954414;28;45323;-69
2023/09/29 09:12:18;;;;;;;;;1.00;0.00;;;;;23.35;54.81;101506.72;4940411;28;45338;-70
2023/09/29 09:14:47;;;;;;;;;1.00;1.00;;;;;23.49;54.51;101515.72;4950409;28;45309;-69
2023/09/29 09:17:13;;;;;;;;;0.00;0.00;;;;;23.49;54.19;101530.13;4944495;28;45474;-68
2023/09/29 09:19:47;;;;;;;;;1.00;0.50;;;;;23.45;54.20;101520.72;4955342;28;45645;-72
2023/09/29 09:22:14;;;;;;;;;0.50;0.50;;;;;23.49;54.30;101532.00;4941278;28;45438;-69
2023/09/29 09:24:40;;;;;;;;;1.00;0.00;;;;;23.50;53.84;101539.09;4948686;28;45418;-69
2023/09/29 09:27:05;;;;;;;;;0.00;0.00;;;;;23.44;54.56;101529.09;4949331;28;47269;-69
2023/09/29 09:29:38;;;;;;;;;0.50;0.00;;;;;23.51;54.43;101552.44;4962508;28;45450;-69
2023/09/29 09:32:06;;;;;;;;;1.00;0.00;;;;;23.46;54.44;101551.41;4942563;28;45553;-69
2023/09/29 09:34:32;;;;;;;;;1.00;1.00;;;;;23.41;55.37;101559.31;4953265;28;45621;-72
2023/09/29 09:36:58;;;;;;;;;1.00;0.00;;;;;23.45;55.44;101563.31;4948786;28;45453;-69
2023/09/29 09:39:24;;;;;;;;;1.00;1.00;;;;;23.42;54.98;101569.97;4955811;28;45375;-69
2023/09/29 09:41:53;;;;;;;;;9.00;8.00;;;;;23.35;55.15;101569.16;4942130;28;45392;-69
2023/09/29 09:44:23;;;;;;;;;0.50;0.25;;;;;23.42;55.21;101590.84;4945251;28;45418;-69
2023/09/29 09:47:01;;;;;;;;;0.00;0.00;;;;;23.32;55.98;101592.09;4955815;28;46954;-70
2023/09/29 09:49:38;;;;;;;;;1.00;1.00;;;;;23.30;56.16;101591.47;4946535;28;45419;-69
2023/09/29 09:52:15;;;;;;;;;2.00;1.00;;;;;23.20;55.66;101572.03;4947106;28;45606;-70
2023/09/29 09:54:56;;;;;;;;;2.00;2.00;;;;;23.38;55.50;101596.69;4944195;28;45559;-70
2023/09/29 09:57:38;;;;;;;;;7.67;5.33;;;;;23.34;55.14;101590.03;4960099;28;47334;-70
2023/09/29 10:00:12;;;;;;;;;2.50;1.00;;;;;23.47;54.45;101594.63;4959250;28;45568;-68
2023/09/29 10:02:43;;;;;;;;;3.25;2.00;;;;;23.50;54.65;101598.81;4947705;28;45789;-72
2023/09/29 10:05:16;;;;;;;;;1.00;1.00;;;;;23.49;54.56;101597.13;4949596;28;45484;-69
2023/09/29 10:07:52;;;;;;;;;4.25;1.00;;;;;23.42;54.57;101609.84;4949465;28;45744;-70
2023/09/29 10:10:34;;;;;;;;;1.50;1.00;;;;;23.35;54.13;101599.84;4939620;28;45339;-69
2023/09/29 10:13:00;;;;;;;;;1.25;0.25;;;;;23.37;53.80;101618.63;4942593;28;45348;-71
2023/09/29 10:15:29;;;;;;;;;3.67;2.33;;;;;23.06;53.30;101575.81;4946308;28;45427;-70
2023/09/29 10:18:14;;;;;;;;;3.00;1.00;;;;;23.33;53.54;101620.91;4950603;28;46551;-69
2023/09/29 10:20:39;;;;;;;;;1.00;1.00;;;;;23.33;53.55;101626.34;4945812;28;45668;-69
2023/09/29 10:23:07;;;;;;;;;2.50;1.25;;;;;23.31;53.06;101622.16;4942785;28;45312;-69
2023/09/29 10:25:35;;;;;;;;;5.00;3.00;;;;;23.38;53.28;101634.69;4941016;28;45486;-69
2023/09/29 10:28:04;;;;;;;;;5.67;5.33;;;;;23.12;53.46;101607.53;4944692;28;45912;-70
2023/09/29 10:30:30;;;;;;;;;3.67;3.33;;;;;23.07;53.00;101615.44;4941682;28;45400;-69
2023/09/29 10:33:06;;;;;;;;;6.25;2.75;;;;;23.20;53.27;101649.88;4955554;28;45520;-71
2023/09/29 10:35:35;;;;;;;;;3.00;2.00;;;;;22.90;53.55;101595.16;4952362;28;45405;-70
2023/09/29 10:38:10;;;;;;;;;3.33;1.00;;;;;23.33;52.98;101648.03;4956279;28;45710;-70
2023/09/29 10:40:36;;;;;;;;;3.00;3.00;;;;;23.40;52.47;101630.94;4938411;28;45427;-69
2023/09/29 10:43:02;;;;;;;;;1.00;1.00;;;;;23.34;52.02;101611.72;4951705;28;45433;-69
2023/09/29 10:45:36;;;;;;;;;3.75;3.75;;;;;23.69;52.17;101646.88;4939726;28;45515;-69
2023/09/29 10:48:07;;;;;;;;;1.00;1.00;;;;;23.55;51.10;101607.97;4946366;28;46690;-70
2023/09/29 10:50:58;;;;;;;;;6.50;3.00;;;;;24.01;51.28;101655.19;4945862;28;45404;-70
2023/09/29 10:53:24;;;;;;;;;2.00;2.00;;;;;24.08;50.76;101656.03;4949727;28;45262;-70
2023/09/29 10:55:51;;;;;;;;;3.75;3.75;;;;;24.12;50.72;101668.16;4946509;28;45494;-69
2023/09/29 10:58:18;;;;;;;;;2.67;2.67;;;;;24.11;50.11;101661.06;4952919;28;47964;-70
2023/09/29 11:00:49;;;;;;;;;6.67;6.67;;;;;24.24;50.00;101658.31;4947836;28;45499;-70
2023/09/29 11:03:16;;;;;;;;;2.00;1.00;;;;;24.30;49.83;101670.25;4945729;28;45458;-69
2023/09/29 11:05:50;;;;;;;;;3.25;2.25;;;;;24.30;49.69;101662.94;4951598;28;45421;-69
2023/09/29 11:08:19;;;;;;;;;5.67;4.67;;;;;24.44;49.87;101678.19;4949570;28;46800;-69
2023/09/29 11:11:05;;;;;;;;;1.50;1.50;;;;;24.51;49.00;101668.09;4951597;28;45371;-69
2023/09/29 11:13:31;;;;;;;;;1.25;1.00;;;;;24.58;49.59;101673.50;4950911;28;45430;-74
2023/09/29 11:15:58;;;;;;;;;3.00;2.00;;;;;24.64;48.48;101674.56;4950956;28;45577;-72
2023/09/29 11:18:34;;;;;;;;;5.00;4.00;;;;;24.63;48.13;101672.88;4951144;28;45650;-71
2023/09/29 11:21:11;;;;;;;;;4.25;3.75;;;;;24.24;47.94;101609.41;4951141;28;45510;-70
2023/09/29 11:23:45;;;;;;;;;2.75;2.00;;;;;24.36;47.98;101621.31;4958886;28;45514;-70
2023/09/29 11:26:12;;;;;;;;;2.25;2.25;;;;;24.63;47.66;101675.59;4951593;28;45494;-70